Portada
METAR-TAF:

METAR-TAF

Aeroports :

Tarawa, Kiribati

latitud: 01-21N, longitud: 172-55E, altitud: 2 m

Observació

L'informe es va fer fa 34 minuts, a les 16:00 UTC
Vent 3 kt del Nord-Oest
Temperatura 27°C
Humitat 89%
Pressió 1009 hPa
Visibilitat 10 km o més
Escasses núvols a una alçada de 2000 ft
Núvols disperses a una alçada de 30000 ft

METAR: NGTA 211600Z 31003KT 9999 FEW020 SCT300 27/25 Q1009

Hora: 06:34 (16:34 UTC)

Pronòstic

L'informe es va fer fa 5 hores i 17 minuts, a les 11:17 UTC
Pronòstic vàlid del 21 a les 12 UTC al 22 a les 12 UTC
Vent 3 kt amb direcció variable
Visibilitat 10 km o més
Núvols disperses a una alçada de 2000 ft
Núvols disperses a una alçada de 10000 ft
Probabilitat 30% :
Temporalment
l' 21 a les 15 UTC al 21 a les 24 UTC
Visibilitat: 5000 m
Cel ennuvolat a una alçada de 1500 ft
Escasses núvols a una alçada de 1800 ft, Cumulonimbus.
tempesta, pluja

TAF: NGTA 211117Z 2112/2212 VRB03KT 9999 SCT020 SCT100 PROB30 TEMPO 2115/2124 5000 TSRA BKN015 FEW018CB

Observacions i pronòstics meteorològics de més de 4000 aeroports (METAR i TAF).

Les estacions disponibles són els punts grocs i vermells al mapa.

Posi el ratolí al punt desitjat per veure el nom de l'estació.

Feu clic per veure les observacions i els pronòstics meteorològics.

Per canviar el mapa: feu clic els botons verds amb una creu de color negre per apropar; al botó verd amb un guió per allunyar la imatge; o en les fletxes verdes per a mapes adjacents.


METAR-TAF: